Time;durP1;ratioP1;P1;durP2;ratioP2;P2;SDS_P1;SDS_P2;PMS_P1;PMS_P2;Temp;Humidity;BMP_temperature;BMP_pressure;BME280_temperature;BME280_humidity;BME280_pressure;Samples;Min_cycle;Max_cycle;Signal;HPM_P1;HPM_P2
2021/06/01 00:00:36;;;;;;;7.07;3.10;;;;;;;12.66;70.11;99664.00;5027326;28;20034;-24
2021/06/01 00:03:02;;;;;;;10.52;3.55;;;;;;;12.90;69.63;99660.38;5027519;28;20037;-24
2021/06/01 00:05:28;;;;;;;6.72;3.30;;;;;;;12.85;71.33;99653.06;5027558;28;20847;-24
2021/06/01 00:07:53;;;;;;;7.55;3.10;;;;;;;12.82;70.66;99653.56;5027756;28;20026;-24
2021/06/01 00:10:19;;;;;;;6.93;3.33;;;;;;;12.59;70.60;99641.97;5026851;28;20113;-24
2021/06/01 00:12:44;;;;;;;6.95;3.28;;;;;;;12.81;68.69;99646.56;5026105;28;20034;-24
2021/06/01 00:15:10;;;;;;;4.65;2.72;;;;;;;12.40;68.97;99636.03;5027380;28;20034;-24
2021/06/01 00:17:36;;;;;;;9.98;4.32;;;;;;;12.34;70.03;99647.69;5027319;28;20025;-24
2021/06/01 00:20:04;;;;;;;11.10;4.72;;;;;;;12.26;70.38;99634.72;5027154;28;20037;-23
2021/06/01 00:22:29;;;;;;;8.25;3.20;;;;;;;11.91;70.43;99654.38;5026859;28;20054;-24
2021/06/01 00:24:55;;;;;;;6.50;3.00;;;;;;;11.63;71.55;99650.59;5027017;28;20552;-24
2021/06/01 00:27:20;;;;;;;5.30;3.13;;;;;;;11.78;72.72;99654.59;5026993;28;20033;-24
2021/06/01 00:29:46;;;;;;;7.53;3.35;;;;;;;11.75;73.78;99655.06;5030065;28;20044;-24
2021/06/01 00:32:11;;;;;;;8.30;3.03;;;;;;;11.63;72.33;99637.22;5030964;28;20470;-24
2021/06/01 00:34:36;;;;;;;5.47;2.92;;;;;;;12.00;71.07;99652.94;5031164;28;20060;-24
2021/06/01 00:37:02;;;;;;;5.15;2.85;;;;;;;12.27;70.63;99668.41;5031057;28;20033;-24
2021/06/01 00:39:28;;;;;;;11.80;3.90;;;;;;;11.98;70.35;99668.41;5031033;28;20668;-24
2021/06/01 00:41:53;;;;;;;7.80;2.90;;;;;;;12.08;72.50;99675.00;5030197;28;20030;-24
2021/06/01 00:44:18;;;;;;;4.53;2.80;;;;;;;11.94;70.84;99669.13;5031024;28;20038;-24
2021/06/01 00:46:44;;;;;;;7.60;3.40;;;;;;;12.22;69.84;99665.66;5031219;28;20034;-24
2021/06/01 00:49:09;;;;;;;4.88;2.65;;;;;;;12.05;70.53;99671.75;5030714;28;20041;-24
2021/06/01 00:51:35;;;;;;;5.80;2.75;;;;;;;11.94;71.77;99669.91;5030754;28;20059;-23
2021/06/01 00:54:01;;;;;;;5.10;3.10;;;;;;;12.22;70.57;99665.66;5029307;28;20441;-24
2021/06/01 00:56:26;;;;;;;6.00;2.85;;;;;;;12.41;69.75;99672.41;5030367;28;20045;-24
2021/06/01 00:58:52;;;;;;;9.20;3.20;;;;;;;12.19;68.18;99663.44;5030690;28;20398;-24
2021/06/01 01:01:20;;;;;;;5.75;3.28;;;;;;;12.31;68.70;99669.53;5030731;28;20052;-24
2021/06/01 01:03:47;;;;;;;6.63;3.28;;;;;;;12.10;70.05;99636.28;5030814;28;20071;-24
2021/06/01 01:06:36;;;;;;;8.23;3.05;;;;;;;12.46;69.87;99664.47;5030400;28;20029;-24
2021/06/01 01:09:09;;;;;;;5.15;2.90;;;;;;;12.14;69.21;99647.31;5030775;28;20033;-24
2021/06/01 01:11:43;;;;;;;6.10;2.67;;;;;;;11.88;69.07;99654.81;5030544;28;20040;-24
2021/06/01 01:14:28;;;;;;;8.52;3.10;;;;;;;11.91;71.18;99662.41;5029068;28;20413;-24
2021/06/01 01:17:16;;;;;;;4.88;2.60;;;;;;;12.09;69.02;99657.91;5030762;28;20778;-24
2021/06/01 01:19:42;;;;;;;6.32;3.00;;;;;;;11.90;68.77;99666.09;5029189;28;20569;-25
2021/06/01 01:22:07;;;;;;;5.95;3.00;;;;;;;11.96;69.56;99635.75;5030759;28;20213;-25
2021/06/01 01:24:51;;;;;;;4.75;2.83;;;;;;;12.21;69.22;99653.31;5012572;28;20025;-24
2021/06/01 01:27:51;;;;;;;5.20;2.70;;;;;;;12.04;69.66;99654.09;5030324;28;20033;-24
2021/06/01 01:30:16;;;;;;;6.32;2.80;;;;;;;12.09;68.25;99644.53;5029962;28;20033;-24
2021/06/01 01:32:51;;;;;;;4.90;2.40;;;;;;;11.85;68.71;99656.09;5029990;28;20548;-24
2021/06/01 01:35:16;;;;;;;5.68;2.70;;;;;;;11.53;68.95;99642.34;5029877;28;20037;-23
2021/06/01 01:37:42;;;;;;;7.47;3.13;;;;;;;11.96;70.62;99657.13;5028866;28;20045;-24
2021/06/01 01:40:07;;;;;;;6.13;3.03;;;;;;;11.99;68.66;99635.28;5027308;28;20033;-24
2021/06/01 01:42:42;;;;;;;5.80;2.45;;;;;;;12.02;68.31;99640.16;5029872;28;20033;-23
2021/06/01 01:45:13;;;;;;;5.85;3.28;;;;;;;12.14;68.69;99631.28;5013512;28;20036;-23
2021/06/01 01:50:13;;;;;;;6.47;2.80;;;;;;;12.27;68.37;99625.63;5029395;28;20029;-23
2021/06/01 01:52:40;;;;;;;4.10;2.70;;;;;;;11.97;68.03;99648.09;5029206;28;20053;-23
2021/06/01 01:55:09;;;;;;;4.50;2.50;;;;;;;11.66;68.75;99639.41;5029783;28;20025;-23
2021/06/01 01:57:36;;;;;;;7.53;2.80;;;;;;;11.96;68.92;99630.41;5028370;28;20558;-23
2021/06/01 02:00:08;;;;;;;3.67;2.58;;;;;;;12.03;68.96;99631.09;5028419;28;20029;-23
2021/06/01 02:02:34;;;;;;;6.57;3.13;;;;;;;12.09;70.24;99639.19;5029313;28;20105;-23
2021/06/01 02:05:00;;;;;;;4.70;2.60;;;;;;;12.13;68.13;99638.47;5028033;28;20108;-24
2021/06/01 02:07:25;;;;;;;8.88;3.00;;;;;;;11.91;67.84;99616.97;5028155;28;20116;-23
2021/06/01 02:09:51;;;;;;;7.03;2.90;;;;;;;12.29;67.18;99644.91;5029653;28;20490;-23
2021/06/01 02:12:16;;;;;;;32.35;5.00;;;;;;;12.24;67.40;99642.16;5028973;28;20025;-23
2021/06/01 02:14:41;;;;;;;8.35;3.20;;;;;;;12.09;68.44;99648.00;5029441;28;20432;-23
2021/06/01 02:17:07;;;;;;;6.30;2.83;;;;;;;11.83;68.54;99625.34;5029655;28;20029;-23
2021/06/01 02:19:32;;;;;;;4.80;2.70;;;;;;;11.74;68.24;99622.22;5027909;28;20095;-24
2021/06/01 02:24:54;;;;;;;5.13;2.78;;;;;;;11.29;70.64;99635.44;5027916;28;20067;-23
2021/06/01 02:27:23;;;;;;;18.10;3.88;;;;;;;11.39;70.20;99646.34;5029201;28;20021;-23
2021/06/01 02:30:07;;;;;;;7.90;3.47;;;;;;;11.50;71.41;99639.34;5029025;28;20033;-23
2021/06/01 02:32:35;;;;;;;6.25;3.15;;;;;;;11.61;71.42;99650.00;5028873;28;20025;-23
2021/06/01 02:35:09;;;;;;;6.47;3.72;;;;;;;11.60;69.30;99642.22;5029014;28;20041;-23
2021/06/01 02:37:38;;;;;;;6.75;3.60;;;;;;;11.53;69.78;99641.56;5028935;28;20044;-23
2021/06/01 02:40:05;;;;;;;8.70;3.70;;;;;;;11.75;69.42;99647.06;5028725;28;20036;-23
2021/06/01 02:42:31;;;;;;;10.02;3.70;;;;;;;11.62;68.74;99648.13;5028465;28;20080;-23
2021/06/01 02:44:56;;;;;;;8.85;3.42;;;;;;;11.59;68.27;99636.06;5011196;28;20033;-23
2021/06/01 02:47:22;;;;;;;19.10;4.00;;;;;;;11.37;69.51;99632.41;5027669;28;20037;-24
2021/06/01 02:49:48;;;;;;;8.57;3.70;;;;;;;11.25;70.58;99624.41;5028653;28;20029;-23
2021/06/01 02:52:14;;;;;;;7.40;3.50;;;;;;;10.76;72.76;99616.63;5009951;28;20146;-23
2021/06/01 02:54:39;;;;;;;7.57;3.70;;;;;;;11.21;69.95;99632.06;5010977;28;20037;-23
2021/06/01 02:57:05;;;;;;;6.53;3.78;;;;;;;11.50;70.44;99634.00;5028314;28;20037;-23
2021/06/01 02:59:31;;;;;;;11.32;4.28;;;;;;;11.45;70.15;99645.38;5010872;28;20029;-23
2021/06/01 03:01:56;;;;;;;10.25;4.07;;;;;;;11.27;68.84;99649.81;5010913;28;20474;-23
2021/06/01 03:04:22;;;;;;;11.45;4.57;;;;;;;11.05;70.92;99624.75;5028191;28;20072;-23
2021/06/01 03:06:47;;;;;;;10.15;4.50;;;;;;;11.10;70.32;99637.44;5028439;28;20040;-27
2021/06/01 03:09:13;;;;;;;9.00;4.70;;;;;;;11.35;70.37;99618.47;5028405;28;20040;-23
2021/06/01 03:11:40;;;;;;;7.93;4.35;;;;;;;11.32;68.72;99625.09;5028262;28;20036;-23
2021/06/01 03:14:06;;;;;;;9.20;4.70;;;;;;;11.50;72.13;99637.47;5027241;28;20025;-23
2021/06/01 03:16:31;;;;;;;8.43;4.18;;;;;;;11.66;69.22;99626.06;5028101;28;20271;-23
2021/06/01 03:18:57;;;;;;;10.93;4.15;;;;;;;11.60;69.19;99631.53;5028495;28;20472;-23
2021/06/01 03:21:24;;;;;;;7.53;4.63;;;;;;;11.78;67.82;99639.38;5028233;28;20051;-23
2021/06/01 03:23:49;;;;;;;10.43;4.65;;;;;;;11.74;68.32;99638.22;5027797;28;20418;-23
2021/06/01 03:26:15;;;;;;;8.57;4.50;;;;;;;11.89;69.69;99635.09;5027704;28;20026;-23
2021/06/01 03:28:41;;;;;;;9.52;4.65;;;;;;;11.69;67.96;99630.13;5028165;28;20028;-23
2021/06/01 03:31:06;;;;;;;10.30;4.55;;;;;;;11.96;68.29;99635.75;5027986;28;20033;-23
2021/06/01 03:33:33;;;;;;;9.05;4.47;;;;;;;11.95;71.63;99639.50;5027811;28;20120;-23
2021/06/01 03:35:58;;;;;;;7.15;4.68;;;;;;;11.94;68.34;99637.84;5027740;28;20394;-23
2021/06/01 03:38:24;;;;;;;8.82;4.65;;;;;;;11.83;68.93;99652.06;5027284;28;20474;-23
2021/06/01 03:40:50;;;;;;;11.18;5.38;;;;;;;11.59;69.31;99643.28;5027657;28;20022;-24
2021/06/01 03:43:15;;;;;;;7.05;4.78;;;;;;;11.42;69.58;99653.84;5027680;28;20497;-23
2021/06/01 03:45:40;;;;;;;8.70;5.07;;;;;;;11.36;69.32;99650.28;5027996;28;20022;-24
2021/06/01 03:48:06;;;;;;;8.05;5.38;;;;;;;11.49;70.14;99649.22;5027828;28;20041;-23
2021/06/01 03:50:32;;;;;;;8.98;5.40;;;;;;;11.38;69.96;99626.84;5027481;28;20087;-24
2021/06/01 03:52:58;;;;;;;8.85;5.18;;;;;;;11.63;68.24;99625.75;5026341;28;20176;-24
2021/06/01 03:55:23;;;;;;;11.68;5.28;;;;;;;11.80;68.77;99642.63;5027650;28;20028;-23
2021/06/01 03:57:49;;;;;;;8.57;5.40;;;;;;;11.80;69.95;99639.97;5027430;28;20034;-23
2021/06/01 04:00:17;;;;;;;7.95;5.35;;;;;;;11.90;68.59;99646.59;5027271;28;20029;-23
2021/06/01 04:02:42;;;;;;;8.52;5.82;;;;;;;11.74;69.60;99605.38;5027134;28;20040;-23
2021/06/01 04:05:08;;;;;;;9.65;6.03;;;;;;;12.13;69.80;99640.34;5027083;28;20033;-23
2021/06/01 04:07:33;;;;;;;7.43;5.38;;;;;;;11.93;68.86;99641.59;5027498;28;20022;-23
2021/06/01 04:09:59;;;;;;;9.52;5.55;;;;;;;11.89;68.77;99643.13;5027094;28;20033;-23
2021/06/01 04:12:24;;;;;;;9.40;5.50;;;;;;;12.16;70.67;99639.88;5027080;28;20033;-23
2021/06/01 04:14:50;;;;;;;8.00;5.75;;;;;;;12.30;68.03;99635.03;5027369;28;20034;-23
2021/06/01 04:17:15;;;;;;;8.77;5.43;;;;;;;11.89;68.40;99635.09;5027272;28;20395;-23
2021/06/01 04:19:41;;;;;;;8.90;5.40;;;;;;;11.66;68.86;99636.75;5027089;28;20040;-23
2021/06/01 04:22:06;;;;;;;7.97;5.10;;;;;;;11.76;69.40;99624.66;5027183;28;20029;-24
2021/06/01 04:24:32;;;;;;;8.02;5.63;;;;;;;12.01;68.91;99622.50;5026571;28;20092;-23
2021/06/01 04:26:58;;;;;;;11.50;5.32;;;;;;;12.21;68.38;99638.09;5027170;28;20037;-24
2021/06/01 04:29:23;;;;;;;8.57;5.25;;;;;;;12.39;67.20;99629.03;5027198;28;20038;-25
2021/06/01 04:31:49;;;;;;;8.60;5.70;;;;;;;12.64;66.53;99642.03;5027156;28;20831;-26
2021/06/01 04:34:15;;;;;;;9.77;5.60;;;;;;;12.50;66.90;99616.66;5027183;28;20026;-25
2021/06/01 04:36:41;;;;;;;8.90;5.38;;;;;;;12.87;66.42;99645.59;5027101;28;20034;-23
2021/06/01 04:39:06;;;;;;;8.20;5.60;;;;;;;12.80;67.51;99632.38;5026891;28;20033;-23
2021/06/01 04:41:32;;;;;;;7.68;4.95;;;;;;;12.93;66.06;99638.47;5027065;28;20120;-23
2021/06/01 04:43:57;;;;;;;8.77;4.80;;;;;;;12.73;67.68;99631.75;5027020;28;20036;-23
2021/06/01 04:46:22;;;;;;;12.50;4.97;;;;;;;12.46;66.99;99619.00;5026701;28;20464;-24
2021/06/01 04:48:48;;;;;;;8.40;5.15;;;;;;;12.65;68.04;99616.09;5026882;28;20029;-23
2021/06/01 04:51:16;;;;;;;8.13;5.45;;;;;;;12.68;67.66;99618.28;5026569;28;20054;-23
2021/06/01 04:53:49;;;;;;;8.05;4.85;;;;;;;12.99;67.07;99650.84;5026724;28;20052;-24
2021/06/01 04:56:14;;;;;;;9.27;5.90;;;;;;;12.86;67.65;99639.44;5027019;28;20033;-23
2021/06/01 04:58:40;;;;;;;8.18;5.22;;;;;;;12.88;66.56;99641.88;5026925;28;20520;-23
2021/06/01 05:01:05;;;;;;;11.75;7.22;;;;;;;13.01;67.61;99627.34;5026741;28;20029;-23
2021/06/01 05:03:31;;;;;;;8.82;5.80;;;;;;;13.08;66.67;99638.69;5026825;28;20512;-23
2021/06/01 05:05:56;;;;;;;8.55;5.95;;;;;;;13.04;66.59;99635.69;5026783;28;20045;-24
2021/06/01 05:08:22;;;;;;;9.35;4.93;;;;;;;12.97;66.39;99623.53;5026329;28;20422;-25
2021/06/01 05:10:47;;;;;;;10.25;5.97;;;;;;;13.31;66.86;99642.25;5026659;28;20037;-24
2021/06/01 05:13:12;;;;;;;7.00;4.75;;;;;;;13.39;66.53;99648.00;5026408;28;20029;-26
2021/06/01 05:15:38;;;;;;;11.90;5.43;;;;;;;13.74;66.78;99641.47;5029043;28;20041;-23
2021/06/01 05:18:04;;;;;;;8.65;6.07;;;;;;;14.10;65.25;99630.31;5030066;28;20029;-25
2021/06/01 05:20:29;;;;;;;8.02;4.90;;;;;;;13.69;64.03;99630.69;5030065;28;20041;-24
2021/06/01 05:22:55;;;;;;;8.57;5.72;;;;;;;14.07;64.89;99632.44;5030205;28;20039;-23
2021/06/01 05:25:20;;;;;;;8.25;5.38;;;;;;;14.01;65.63;99624.59;5030575;28;20033;-23
2021/06/01 05:27:46;;;;;;;8.02;5.28;;;;;;;13.98;64.82;99633.16;5030159;28;20041;-23
2021/06/01 05:30:14;;;;;;;9.00;5.38;;;;;;;14.33;64.58;99627.34;5029790;28;20038;-23
2021/06/01 05:35:16;;;;;;;8.50;4.90;;;;;;;14.37;62.86;99635.69;5029831;28;20119;-24
2021/06/01 05:37:41;;;;;;;9.57;5.32;;;;;;;14.36;63.41;99629.50;5029833;28;20059;-23
2021/06/01 05:40:07;;;;;;;7.28;4.93;;;;;;;14.15;62.93;99611.59;5029870;28;20037;-24
2021/06/01 05:42:33;;;;;;;8.82;5.03;;;;;;;14.30;62.96;99624.34;5029638;28;20099;-24
2021/06/01 05:44:58;;;;;;;8.50;4.90;;;;;;;14.26;62.03;99621.34;5030339;28;20142;-23
2021/06/01 05:47:23;;;;;;;6.82;5.07;;;;;;;14.60;62.33;99629.19;5030150;28;20029;-23
2021/06/01 05:49:49;;;;;;;7.13;4.97;;;;;;;14.91;61.78;99632.91;5029623;28;20117;-23
2021/06/01 05:52:14;;;;;;;6.85;5.00;;;;;;;14.89;60.89;99632.38;5029128;28;20057;-25
2021/06/01 05:54:40;;;;;;;8.68;4.95;;;;;;;14.79;62.19;99617.03;5029661;28;20056;-23
2021/06/01 05:57:06;;;;;;;7.53;4.32;;;;;;;14.95;59.84;99617.09;5029527;28;20061;-24
2021/06/01 05:59:32;;;;;;;6.05;4.90;;;;;;;14.96;60.53;99624.13;5029584;28;20080;-23
2021/06/01 06:01:58;;;;;;;6.40;4.57;;;;;;;14.77;60.48;99603.03;5029642;28;20084;-23
2021/06/01 06:04:23;;;;;;;6.85;4.45;;;;;;;14.91;61.26;99624.06;5029203;28;20021;-23
2021/06/01 06:06:49;;;;;;;7.63;3.92;;;;;;;14.74;59.81;99625.03;5029218;28;20068;-23
2021/06/01 06:09:14;;;;;;;7.00;5.28;;;;;;;15.22;61.17;99617.81;5029527;28;20500;-23
2021/06/01 06:11:40;;;;;;;8.23;5.07;;;;;;;15.62;60.63;99624.44;5029273;28;20035;-23
2021/06/01 06:14:05;;;;;;;8.05;5.32;;;;;;;15.40;59.96;99613.06;5029336;28;20025;-24
2021/06/01 06:16:40;;;;;;;9.18;5.10;;;;;;;15.53;60.88;99623.34;5029085;28;20120;-23
2021/06/01 06:19:05;;;;;;;8.23;4.50;;;;;;;16.01;59.07;99626.75;5028041;28;20456;-24
2021/06/01 06:21:31;;;;;;;8.32;4.60;;;;;;;15.85;59.56;99623.22;5029297;28;20029;-23
2021/06/01 06:23:56;;;;;;;7.75;3.92;;;;;;;15.62;58.45;99612.91;5029245;28;20052;-23
2021/06/01 06:26:22;;;;;;;6.35;3.92;;;;;;;15.56;57.34;99630.06;5028432;28;20044;-23
2021/06/01 06:28:47;;;;;;;6.22;4.20;;;;;;;15.46;59.02;99630.81;5028955;28;20064;-23
2021/06/01 06:31:13;;;;;;;6.05;4.03;;;;;;;15.77;59.29;99625.59;5028643;28;20045;-24
2021/06/01 06:33:40;;;;;;;5.75;3.90;;;;;;;15.80;58.67;99630.47;5029175;28;20095;-24
2021/06/01 06:36:05;;;;;;;8.20;3.80;;;;;;;15.92;57.06;99633.72;5028937;28;20504;-24
2021/06/01 06:38:31;;;;;;;6.63;4.05;;;;;;;15.87;57.17;99641.75;5028937;28;20033;-23
2021/06/01 06:43:38;;;;;;;5.95;3.60;;;;;;;15.93;57.98;99621.88;5029040;28;20060;-23
2021/06/01 06:46:11;;;;;;;6.32;3.70;;;;;;;16.09;57.55;99628.13;5028442;28;20037;-24
2021/06/01 06:48:36;;;;;;;5.38;3.35;;;;;;;16.32;56.46;99632.19;5028863;28;20037;-23
2021/06/01 06:51:12;;;;;;;7.70;3.95;;;;;;;16.74;57.12;99628.44;5027093;28;20033;-23
2021/06/01 06:53:37;;;;;;;5.10;3.50;;;;;;;16.71;55.41;99628.16;5028804;28;20038;-23
2021/06/01 06:56:03;;;;;;;5.30;3.00;;;;;;;16.68;54.99;99637.59;5027172;28;20486;-24
2021/06/01 06:58:29;;;;;;;4.57;2.55;;;;;;;16.48;54.41;99628.44;5028594;28;20018;-23
2021/06/01 07:00:54;;;;;;;4.95;3.40;;;;;;;16.77;53.47;99627.88;5028632;28;20037;-23
2021/06/01 07:03:19;;;;;;;6.93;2.75;;;;;;;17.11;54.59;99631.94;5029067;28;20044;-23
2021/06/01 07:05:45;;;;;;;4.10;2.85;;;;;;;16.75;54.55;99619.25;5028424;28;20034;-23
2021/06/01 07:08:10;;;;;;;3.58;2.70;;;;;;;17.12;54.53;99634.34;5028153;28;20029;-23
2021/06/01 07:10:36;;;;;;;5.80;3.25;;;;;;;16.75;56.07;99631.94;5028225;28;20405;-23
2021/06/01 07:13:02;;;;;;;4.32;3.10;;;;;;;17.12;56.19;99634.34;5028128;28;20029;-23
2021/06/01 07:15:27;;;;;;;5.15;3.10;;;;;;;17.54;55.02;99632.34;5010260;28;20049;-23
2021/06/01 07:17:57;;;;;;;5.47;3.60;;;;;;;17.45;54.33;99629.41;5028099;28;20028;-23
2021/06/01 07:20:25;;;;;;;4.13;2.80;;;;;;;17.26;55.03;99607.63;5027866;28;20049;-23
2021/06/01 07:22:51;;;;;;;3.75;2.72;;;;;;;17.54;53.74;99632.34;5028110;28;20105;-23
2021/06/01 07:25:16;;;;;;;4.43;2.60;;;;;;;17.54;53.11;99635.84;5027980;28;20041;-23
2021/06/01 07:27:42;;;;;;;3.83;2.50;;;;;;;17.68;50.39;99636.84;5028066;28;20033;-23
2021/06/01 07:30:09;;;;;;;4.20;2.80;;;;;;;17.53;53.16;99634.25;5027628;28;20033;-23
2021/06/01 07:32:34;;;;;;;5.73;3.40;;;;;;;17.67;53.85;99639.81;5027746;28;20025;-23
2021/06/01 07:35:01;;;;;;;4.05;3.05;;;;;;;17.66;51.94;99636.31;5027937;28;20068;-23
2021/06/01 07:37:27;;;;;;;4.75;3.08;;;;;;;17.66;52.92;99638.22;5027860;28;20052;-23
2021/06/01 07:39:52;;;;;;;4.90;3.40;;;;;;;17.68;52.25;99631.47;5027878;28;20033;-23
2021/06/01 07:42:18;;;;;;;4.90;2.90;;;;;;;17.47;52.15;99640.72;5027456;28;20033;-23
2021/06/01 07:44:43;;;;;;;4.68;3.15;;;;;;;17.46;53.06;99633.72;5027759;28;20436;-24
2021/06/01 07:47:09;;;;;;;4.45;2.70;;;;;;;18.14;50.49;99621.53;5027985;28;20025;-24
2021/06/01 07:49:34;;;;;;;3.53;2.40;;;;;;;18.52;48.49;99638.03;5028090;28;20026;-24
2021/06/01 07:52:00;;;;;;;4.38;2.65;;;;;;;18.81;50.20;99640.78;5027613;28;20064;-23
2021/06/01 07:54:25;;;;;;;3.97;2.78;;;;;;;19.08;50.64;99645.66;5027386;28;20033;-23
2021/06/01 07:56:51;;;;;;;4.32;2.47;;;;;;;19.12;50.57;99635.88;5027707;28;20044;-23
2021/06/01 07:59:16;;;;;;;4.57;2.30;;;;;;;18.13;48.98;99650.44;5027246;28;20033;-23
2021/06/01 08:01:42;;;;;;;3.80;2.30;;;;;;;18.10;51.01;99620.50;5027581;28;20464;-23
2021/06/01 08:04:09;;;;;;;4.07;2.85;;;;;;;18.14;47.35;99640.44;5027550;28;20029;-23
2021/06/01 08:06:36;;;;;;;3.60;2.10;;;;;;;18.06;48.96;99641.81;5027068;28;20065;-23
2021/06/01 08:09:05;;;;;;;3.25;2.22;;;;;;;17.95;50.33;99632.97;5027242;28;20025;-23
2021/06/01 08:11:31;;;;;;;4.28;2.25;;;;;;;17.83;48.83;99617.13;5027253;28;20037;-23
2021/06/01 08:13:57;;;;;;;3.10;2.30;;;;;;;18.49;47.79;99628.59;5027138;28;20030;-23
2021/06/01 08:16:22;;;;;;;3.50;2.70;;;;;;;18.59;49.14;99617.72;5027096;28;20059;-23
2021/06/01 08:21:53;;;;;;;3.58;2.40;;;;;;;18.09;51.06;99640.47;5035264;28;20076;-23
2021/06/01 08:24:19;;;;;;;2.95;2.15;;;;;;;17.60;50.46;99623.94;5026769;28;20029;-23
2021/06/01 08:26:44;;;;;;;2.95;2.30;;;;;;;17.74;52.53;99615.28;5027290;28;20044;-23
2021/06/01 08:29:12;;;;;;;3.42;2.40;;;;;;;17.78;52.70;99617.13;5027432;28;20034;-23
2021/06/01 08:31:38;;;;;;;2.70;2.40;;;;;;;18.46;51.68;99624.53;5027156;28;20026;-24
2021/06/01 08:34:03;;;;;;;3.67;2.03;;;;;;;18.27;48.98;99607.44;5025913;28;20029;-24
2021/06/01 08:36:29;;;;;;;3.58;2.65;;;;;;;18.00;50.88;99615.94;5027076;28;20037;-24
2021/06/01 08:38:54;;;;;;;4.25;2.60;;;;;;;18.61;50.00;99614.72;5027194;28;20084;-23
2021/06/01 08:41:20;;;;;;;3.35;2.50;;;;;;;19.09;47.21;99606.72;5027257;28;20103;-23
2021/06/01 08:43:47;;;;;;;2.80;2.20;;;;;;;19.24;48.73;99601.16;5027129;28;20598;-23
2021/06/01 08:46:13;;;;;;;3.13;2.10;;;;;;;19.71;46.99;99603.34;5025605;28;20037;-23
2021/06/01 08:48:38;;;;;;;2.97;2.20;;;;;;;19.52;46.34;99601.38;5026954;28;20034;-23
2021/06/01 08:51:06;;;;;;;3.28;1.98;;;;;;;19.58;47.99;99589.41;5029857;28;20029;-23
2021/06/01 08:53:35;;;;;;;3.20;2.10;;;;;;;20.16;46.05;99609.19;5030736;28;20139;-23
2021/06/01 08:56:01;;;;;;;4.10;1.90;;;;;;;19.95;43.08;99587.84;5029544;28;20644;-23
2021/06/01 08:58:26;;;;;;;3.00;1.80;;;;;;;20.20;45.77;99615.63;5030690;28;20545;-24
2021/06/01 09:00:52;;;;;;;2.42;1.95;;;;;;;20.02;47.10;99615.34;5029371;28;20409;-23
2021/06/01 09:03:20;;;;;;;2.75;1.98;;;;;;;20.51;43.79;99607.03;5030769;28;20037;-24
2021/06/01 09:22:38;;;;;;;3.85;2.28;;;;;;;18.77;47.50;99591.88;5029224;28;20270;-24
2021/06/01 09:25:12;;;;;;;4.03;2.53;;;;;;;19.08;47.02;99618.63;5030397;28;20037;-25
2021/06/01 09:27:44;;;;;;;4.22;2.60;;;;;;;18.67;48.60;99610.88;5030209;28;20034;-24
2021/06/01 09:30:11;;;;;;;2.58;2.00;;;;;;;18.25;47.84;99606.91;5029987;28;20037;-24
2021/06/01 09:32:43;;;;;;;5.35;2.47;;;;;;;18.53;50.04;99601.81;5030003;28;20021;-24
2021/06/01 09:35:09;;;;;;;3.00;2.10;;;;;;;18.58;51.69;99593.69;5029732;28;20033;-25
2021/06/01 09:37:36;;;;;;;6.53;2.50;;;;;;;18.47;52.59;99609.97;5012622;28;20096;-24
2021/06/01 09:40:30;;;;;;;6.65;3.05;;;;;;;19.06;52.19;99618.09;5030043;28;20124;-25
2021/06/01 09:42:56;;;;;;;3.58;2.45;;;;;;;19.01;51.66;99618.16;5029386;28;20524;-24
2021/06/01 09:45:22;;;;;;;4.65;3.40;;;;;;;18.91;50.69;99615.56;5029848;28;20041;-24
2021/06/01 09:47:58;;;;;;;4.47;2.35;;;;;;;18.96;51.46;99620.91;5030118;28;20033;-24
2021/06/01 09:52:54;;;;;;;3.00;2.20;;;;;;;19.12;49.75;99603.44;5029601;28;20053;-24
2021/06/01 09:55:29;;;;;;;3.03;1.98;;;;;;;19.12;48.24;99614.25;5029946;28;20061;-24
2021/06/01 09:57:56;;;;;;;2.80;1.92;;;;;;;19.26;49.04;99615.19;5029500;28;20493;-24
2021/06/01 10:00:30;;;;;;;10.05;2.30;;;;;;;19.63;47.45;99621.78;5029498;28;20098;-24
2021/06/01 10:03:03;;;;;;;2.63;1.92;;;;;;;19.39;49.01;99629.09;5028882;28;20072;-24
2021/06/01 10:05:28;;;;;;;4.10;2.10;;;;;;;19.11;49.93;99617.25;5029604;28;20038;-24
2021/06/01 10:07:55;;;;;;;2.65;2.00;;;;;;;18.77;50.93;99616.19;5029589;28;20025;-24
2021/06/01 10:10:31;;;;;;;2.72;2.10;;;;;;;19.00;48.84;99601.16;5029051;28;20112;-24
2021/06/01 10:12:58;;;;;;;4.22;2.15;;;;;;;19.11;50.66;99611.84;5029244;28;20033;-24
2021/06/01 10:15:25;;;;;;;2.38;1.90;;;;;;;19.24;50.58;99616.56;5029341;28;20090;-24
2021/06/01 10:17:50;;;;;;;3.80;2.20;;;;;;;19.48;49.53;99613.88;5029485;28;20109;-24
2021/06/01 10:20:18;;;;;;;2.53;2.00;;;;;;;19.61;49.36;99613.16;5029158;28;20038;-24
2021/06/01 10:22:43;;;;;;;2.50;2.00;;;;;;;19.73;48.43;99611.97;5029197;28;20426;-24
2021/06/01 10:25:09;;;;;;;5.28;2.10;;;;;;;20.15;46.75;99599.47;5029381;28;20033;-24
2021/06/01 10:27:35;;;;;;;4.50;1.65;;;;;;;20.77;44.07;99608.22;5029224;28;20068;-24
2021/06/01 10:30:01;;;;;;;2.85;1.42;;;;;;;20.79;41.48;99610.66;5029284;28;20030;-24
2021/06/01 10:32:26;;;;;;;1.98;1.42;;;;;;;20.56;43.49;99596.13;5028613;28;20025;-24
2021/06/01 10:34:53;;;;;;;2.45;1.40;;;;;;;20.22;42.90;99591.78;5011381;28;20026;-24
2021/06/01 10:51:56;;;;;;;2.92;2.03;;;;;;;21.04;43.41;99591.22;5028772;28;20061;-24
2021/06/01 10:54:44;;;;;;;4.50;2.50;;;;;;;20.44;44.40;99589.25;5028311;28;20352;-24
2021/06/01 10:57:14;;;;;;;3.35;2.50;;;;;;;19.86;46.99;99585.00;5028693;28;20044;-24
2021/06/01 11:02:14;;;;;;;3.25;2.20;;;;;;;19.06;49.65;99583.78;5028333;28;20490;-24
2021/06/01 11:05:04;;;;;;;5.03;1.95;;;;;;;19.04;48.86;99585.97;5028280;28;20021;-24
2021/06/01 11:07:52;;;;;;;4.85;2.00;;;;;;;19.19;46.77;99581.50;5028458;28;20040;-24
2021/06/01 11:10:36;;;;;;;;;;;;;;;19.38;45.68;99581.53;5028537;28;20413;-23
2021/06/01 11:13:02;;;;;;;4.60;1.80;;;;;;;19.60;45.12;99570.97;5027814;28;20433;-24
2021/06/01 11:15:28;;;;;;;3.05;1.80;;;;;;;19.96;44.93;99567.81;5028394;28;20041;-24
2021/06/01 11:18:11;;;;;;;2.25;1.30;;;;;;;19.63;41.82;99575.00;5028064;28;20065;-24
2021/06/01 11:20:40;;;;;;;3.40;1.75;;;;;;;19.99;44.32;99572.63;5027244;28;20029;-24
2021/06/01 11:33:50;;;;;;;1.88;1.23;;;;;;;21.25;44.52;99552.88;5027066;28;20131;-24
2021/06/01 11:36:17;;;;;;;1.35;1.23;;;;;;;22.02;43.53;99560.13;5009947;28;20037;-24
2021/06/01 11:38:55;;;;;;;2.22;1.45;;;;;;;21.38;42.00;99562.09;5027827;28;20033;-24
2021/06/01 11:44:24;;;;;;;1.45;1.20;;;;;;;21.80;41.04;99541.13;5027958;28;20402;-24
2021/06/01 11:51:59;;;;;;;3.03;1.15;;;;;;;21.22;41.58;99565.09;5027605;28;20064;-23
2021/06/01 11:54:24;;;;;;;3.22;1.52;;;;;;;21.21;43.53;99568.13;5027342;28;20112;-24
2021/06/01 12:02:46;;;;;;;5.55;1.50;;;;;;;19.93;47.78;99578.41;5027621;28;20133;-23
2021/06/01 12:18:45;;;;;;;3.40;1.30;;;;;;;16.86;58.06;99583.22;5027406;28;20040;-24
2021/06/01 12:21:20;;;;;;;2.53;1.38;;;;;;;17.10;58.25;99588.03;5027258;28;20079;-24
2021/06/01 12:23:57;;;;;;;3.00;1.30;;;;;;;16.90;60.07;99577.25;5025591;28;20486;-24
2021/06/01 12:26:26;;;;;;;2.40;1.40;;;;;;;17.04;57.49;99584.53;5027196;28;20029;-24
2021/06/01 12:31:55;;;;;;;2.60;1.20;;;;;;;17.66;57.41;99579.69;5027358;28;20068;-27
2021/06/01 12:34:27;;;;;;;1.48;1.20;;;;;;;17.95;55.50;99592.53;5026903;28;20031;-24
2021/06/01 13:19:38;;;;;;;2.40;1.25;;;;;;;17.80;54.45;99592.59;5025756;28;20113;-24
2021/06/01 13:39:04;;;;;;;3.03;1.10;;;;;;;17.29;53.81;99646.72;5030440;28;20420;-24
2021/06/01 13:46:48;;;;;;;2.17;1.40;;;;;;;16.86;54.88;99637.06;5030331;28;20543;-24
2021/06/01 13:49:32;;;;;;;2.78;1.70;;;;;;;17.16;54.47;99648.06;5029846;28;20346;-24
2021/06/01 14:09:25;;;;;;;;;;;;;;;17.63;54.81;99658.47;5039645;28;20045;-24
2021/06/01 14:21:21;;;;;;;1.80;0.95;;;;;;;18.28;52.14;99671.91;5029369;28;20398;-24
2021/06/01 14:37:29;;;;;;;1.70;1.20;;;;;;;20.28;49.21;99645.56;5028129;28;20516;-24
2021/06/01 14:40:29;;;;;;;2.67;1.23;;;;;;;20.45;48.27;99647.75;5029024;28;20033;-24
2021/06/01 15:07:23;;;;;;;1.33;0.88;;;;;;;18.34;50.43;99626.00;5029145;28;20852;-24
2021/06/01 16:23:04;;;;;;;4.35;3.22;;;;;;;18.70;52.16;99699.47;5027592;28;20091;-24
2021/06/01 16:33:41;;;;;;;2.05;1.83;;;;;;;18.19;52.78;99715.97;5027003;28;20025;-24
2021/06/01 16:44:14;;;;;;;0.20;0.20;;;;;;;16.98;50.64;99700.63;5027020;28;20031;-24
2021/06/01 17:03:25;;;;;;;1.95;0.70;;;;;;;17.48;53.78;99718.63;5027166;28;20037;-24